Seabourn Legend — C6FR6 — position and weather

sailwx.info

Track history (hours):
 
Tides and Currents Weather Stations Pressure Air Temp Water Temp Dewpoint Dewpoint Depression Visibility Wind Speed Wind Dir Waves Ship Positions

Seabourn Legend

Operator: Cunard Seabourn

Last reported at 2018-Sep-08 07:35 UTC. Time now 2018-Sep-24 21:45 UTC.
Position N 58°10' W 136°54'.
Warning: this ship's position is 16 days out of date.

Length 135 m; draft 5.6 m.

Type: Passenger vessel. MMSI: 311085000.

Date/timePositionNaut miles runAvg speedWind from/ knotsBaromVisibWave heightAir tempDewpointWater temp
2018-Sep-08 07:35N 58°10' W 136°54'315.2
2018-Sep-08 07:22N 58°10' W 136°48'514.7
2018-Sep-08 07:02N 58°10' W 136°39'014.2
2018-Sep-08 07:01N 58°10' W 136°38'1013.1
2018-Sep-08 06:13N 58°17' W 136°24'313.5
2018-Sep-08 06:01N 58°18' W 136°19'015.7
2018-Sep-08 06:00N 58°18' W 136°19'714.5
2018-Sep-08 05:30N 58°20' W 136°05'612.3
2018-Sep-08 05:03N 58°19' W 135°55'113.5
2018-Sep-08 05:00N 58°19' W 135°53'714.3
2018-Sep-08 04:31N 58°17' W 135°40'715.4
2018-Sep-08 04:03N 58°15' W 135°28'115.5
2018-Sep-08 04:00N 58°15' W 135°27'  
2018-Sep-03 09:00N 55°30' W 132°12'54 1.4 330 / 21018.3 12.510.2
2018-Sep-01 17:10N 54°51' W 131°06'1114.8
2018-Sep-01 16:24N 54°41' W 131°14'514.9
2018-Sep-01 16:03N 54°36' W 131°18'114.4
2018-Sep-01 15:59N 54°35' W 131°19'714.8
2018-Sep-01 15:30N 54°29' W 131°14'714.9
2018-Sep-01 15:03N 54°23' W 131°09'115.3
2018-Sep-01 15:00N 54°22' W 131°08'714.9
2018-Sep-01 14:30N 54°16' W 131°02'714.0
2018-Sep-01 14:00N 54°09' W 131°02'714.2
2018-Sep-01 13:30N 54°02' W 131°02'714.5
2018-Sep-01 13:03N 53°55' W 131°02'114.1
2018-Sep-01 13:00N 53°54' W 131°02'714.4
2018-Sep-01 12:30N 53°47' W 131°01'714.8
2018-Sep-01 12:03N 53°41' W 131°00'115.0
2018-Sep-01 12:00N 53°40' W 131°00'815.0
2018-Sep-01 11:30N 53°32' W 130°60'1614.6
2018-Sep-01 10:24N 53°17' W 130°53'8214.8
2018-Sep-01 04:53N 52°07' W 129°42'513.8
2018-Sep-01 04:30N 52°03' W 129°37'613.3
2018-Sep-01 04:03N 51°58' W 129°32'113.1
2018-Sep-01 04:00N 51°57' W 129°31'713.7
2018-Sep-01 03:31N 51°51' W 129°25'614.3
2018-Sep-01 03:04N 51°46' W 129°20'113.6
2018-Sep-01 03:01N 51°45' W 129°19'713.0
2018-Sep-01 02:30N 51°40' W 129°14'613.1
2018-Sep-01 02:03N 51°35' W 129°09'112.9
2018-Sep-01 02:00N 51°34' W 129°08'613.0
2018-Sep-01 01:30N 51°29' W 129°02'512.1
2018-Sep-01 01:03N 51°24' W 128°57'113.6
2018-Sep-01 01:00N 51°24' W 128°56'713.6
2018-Sep-01 00:30N 51°21' W 128°47'512.1
2018-Sep-01 00:03N 51°18' W 128°39'0 9.6
2018-Sep-01 00:00N 51°18' W 128°38'611.8
2018-Aug-31 23:30N 51°15' W 128°30'613.6
2018-Aug-31 23:03N 51°12' W 128°22'113.8
2018-Aug-31 23:00N 51°12' W 128°21'713.9
2018-Aug-31 22:30N 51°08' W 128°11'714.0
2018-Aug-31 22:02N 51°05' W 128°02'114.4
2018-Aug-31 22:00N 51°05' W 128°01'713.7
2018-Aug-31 21:30N 51°01' W 127°52'512.0
2018-Aug-31 21:03N 50°58' W 127°45'1 8.9
2018-Aug-31 20:59N 50°58' W 127°44'4 8.9
2018-Aug-31 20:30N 50°55' W 127°39'4 9.2
2018-Aug-31 20:03N 50°52' W 127°34'0 8.5
2018-Aug-31 20:00N 50°52' W 127°34'4 8.7
2018-Aug-31 19:30N 50°50' W 127°27'4 9.0
2018-Aug-31 19:03N 50°48' W 127°21'0 8.7
2018-Aug-31 19:00N 50°48' W 127°21'4 8.8
2018-Aug-31 18:30N 50°46' W 127°15'7 8.8
2018-Aug-31 17:45N 50°44' W 127°05'3 8.9
2018-Aug-31 17:28N 50°43' W 127°01'4 8.6
2018-Aug-31 17:02N 50°42' W 126°56'0 7.4
2018-Aug-31 16:59N 50°42' W 126°55'5 8.3
2018-Aug-31 16:26N 50°39' W 126°49'4 8.7
2018-Aug-31 16:00N 50°37' W 126°45'1110.8
2018-Aug-31 15:00N 50°30' W 126°31'3911.3
2018-Aug-31 11:34N 50°21' W 125°32'311.8
2018-Aug-31 11:18N 50°20' W 125°27'210.0
2018-Aug-31 11:03N 50°18' W 125°25'1 9.1
2018-Aug-31 10:59N 50°18' W 125°25'511.4
2018-Aug-31 10:30N 50°13' W 125°22'511.0
2018-Aug-31 10:04N 50°08' W 125°21'111.1
2018-Aug-31 10:00N 50°07' W 125°20'510.4
2018-Aug-31 09:30N 50°03' W 125°15'510.6
2018-Aug-31 09:03N 49°59' W 125°12'110.6
2018-Aug-31 08:59N 49°59' W 125°11'511.2
2018-Aug-31 08:30N 49°55' W 125°05'512.3
2018-Aug-31 08:03N 49°51' W 124°59'0 8.8
2018-Aug-31 08:00N 49°51' W 124°58'5 9.2
2018-Aug-31 07:30N 49°48' W 124°53'4 9.5
2018-Aug-31 07:03N 49°45' W 124°48'111.9
2018-Aug-31 07:00N 49°44' W 124°48'612.1
2018-Aug-31 06:30N 49°40' W 124°41'512.1
2018-Aug-31 06:03N 49°36' W 124°36'112.1
2018-Aug-31 05:59N 49°35' W 124°35'612.1
2018-Aug-31 05:30N 49°30' W 124°29'611.8
2018-Aug-31 05:01N 49°27' W 124°23'015.0
2018-Aug-31 05:00N 49°26' W 124°23'711.9
2018-Aug-31 04:26N 49°24' W 124°13'613.5
2018-Aug-31 04:02N 49°23' W 124°05'113.6
2018-Aug-31 03:59N 49°23' W 124°04'713.8
2018-Aug-31 03:30N 49°21' W 123°54'613.5
2018-Aug-31 03:02N 49°19' W 123°45'013.2
2018-Aug-31 03:00N 49°19' W 123°44'714.2
2018-Aug-31 02:30N 49°19' W 123°33'614.2
2018-Aug-31 02:03N 49°19' W 123°23'112.7
2018-Aug-31 02:00N 49°19' W 123°22'2 4.7
2018-Aug-31 01:30N 49°18' W 123°19'1 1.6
2018-Aug-31 01:03N 49°19' W 123°18'0 4.5
2018-Aug-31 01:00N 49°19' W 123°18'511.0
2018-Aug-31 00:30N 49°19' W 123°09'3 5.8
2018-Aug-31 00:03N 49°17' W 123°06'0 2.6
2018-Aug-31 00:00N 49°17' W 123°06'0 0.1
2018-Aug-30 23:28N 49°17' W 123°07'0 0.0
2018-Aug-30 23:01N 49°17' W 123°07'0 0.0
2018-Aug-30 22:58N 49°17' W 123°07'0 0.0
2018-Aug-30 22:28N 49°17' W 123°07'0 0.0
2018-Aug-30 22:00N 49°17' W 123°07'0 0.0
2018-Aug-30 21:28N 49°17' W 123°07'0 0.0
2018-Aug-30 21:04N 49°17' W 123°07'0 0.0
2018-Aug-30 20:58N 49°17' W 123°07'0 0.0
2018-Aug-30 20:30N 49°17' W 123°07'0 0.0
2018-Aug-30 19:31N 49°17' W 123°07'0 0.0
2018-Aug-30 19:01N 49°17' W 123°07'0 0.0
2018-Aug-30 18:58N 49°17' W 123°07'0 0.0
2018-Aug-30 18:31N 49°17' W 123°07'0 0.0
2018-Aug-30 18:04N 49°17' W 123°07'0 0.0
2018-Aug-30 17:57N 49°17' W 123°07'0 0.0
2018-Aug-30 17:28N 49°17' W 123°07'0 0.0
2018-Aug-30 17:01N 49°17' W 123°07'0 0.0
2018-Aug-30 16:31N 49°17' W 123°07'0 0.0
2018-Aug-30 16:03N 49°17' W 123°07'0 0.0
2018-Aug-30 16:01N 49°17' W 123°07'0 0.0
2018-Aug-30 15:31N 49°17' W 123°07'0 0.0
2018-Aug-30 15:03N 49°17' W 123°07'0 0.0
2018-Aug-30 15:01N 49°17' W 123°07'3 2.8
2018-Aug-30 14:03N 49°19' W 123°10'010.9
2018-Aug-30 14:01N 49°19' W 123°10'712.0
2018-Aug-30 13:28N 49°18' W 123°20'511.6
2018-Aug-30 13:04N 49°19' W 123°27'111.8
2018-Aug-30 12:59N 49°19' W 123°29'511.1
2018-Aug-30 12:31N 49°20' W 123°37'511.1
2018-Aug-30 12:03N 49°21' W 123°44'010.1
2018-Aug-30 12:00N 49°21' W 123°45'4 7.6
2018-Aug-30 11:30N 49°22' W 123°51'4 8.2
2018-Aug-30 11:03N 49°23' W 123°57'0 8.1
2018-Aug-30 11:00N 49°23' W 123°57'4 8.3
2018-Aug-30 10:30N 49°23' W 124°03'4 8.8
2018-Aug-30 10:04N 49°24' W 124°09'0 8.6
2018-Aug-30 10:00N 49°24' W 124°10'5 8.8
2018-Aug-30 09:29N 49°25' W 124°17'4 9.3
2018-Aug-30 09:03N 49°27' W 124°23'0 9.2
2018-Aug-30 09:00N 49°27' W 124°23'5 9.3
2018-Aug-30 08:30N 49°30' W 124°29'4 9.1
2018-Aug-30 08:03N 49°33' W 124°33'1 9.1
2018-Aug-30 08:00N 49°33' W 124°34'4 9.0
2018-Aug-30 07:30N 49°37' W 124°38'4 8.8
2018-Aug-30 07:03N 49°39' W 124°42'0 9.1
2018-Aug-30 07:00N 49°40' W 124°43'4 8.8
2018-Aug-30 06:30N 49°43' W 124°48'4 8.6
2018-Aug-30 06:03N 49°46' W 124°52'0 8.1
2018-Aug-30 06:01N 49°46' W 124°52'4 8.8
2018-Aug-30 05:31N 49°49' W 124°57'4 8.9
2018-Aug-30 05:03N 49°52' W 125°01'0 9.0
2018-Aug-30 05:00N 49°52' W 125°02'4 8.5
2018-Aug-30 04:30N 49°55' W 125°06'4 8.8
2018-Aug-30 04:03N 49°58' W 125°11'011.4
2018-Aug-30 04:01N 49°59' W 125°11'510.3
2018-Aug-30 03:30N 50°03' W 125°15'511.9
2018-Aug-30 03:03N 50°07' W 125°20'111.6
2018-Aug-30 03:00N 50°07' W 125°21'712.4
2018-Aug-30 02:29N 50°14' W 125°23'512.1
2018-Aug-30 02:03N 50°19' W 125°25'111.5
2018-Aug-30 02:00N 50°19' W 125°25'4110.0
2018-Aug-29 21:52N 50°30' W 126°28'3 8.7
2018-Aug-29 21:30N 50°30' W 126°33'5 9.0
2018-Aug-29 20:57N 50°31' W 126°41'711.5
2018-Aug-29 20:20N 50°34' W 126°51'4 9.5
2018-Aug-29 19:58N 50°35' W 126°56'5 9.0
2018-Aug-29 19:28N 50°37' W 127°03'511.7
2018-Aug-29 19:01N 50°38' W 127°11'010.6
2018-Aug-29 19:00N 50°38' W 127°11'611.9
2018-Aug-29 18:30N 50°42' W 127°17'511.8
2018-Aug-29 18:03N 50°46' W 127°23'111.6
2018-Aug-29 18:00N 50°47' W 127°23'1710.9
2018-Aug-29 16:28N 50°57' W 127°44'1111.2
2018-Aug-29 15:27N 51°04' W 127°59'411.1
2018-Aug-29 15:03N 51°06' W 128°05'111.0
2018-Aug-29 14:59N 51°06' W 128°06'511.1
2018-Aug-29 14:30N 51°10' W 128°13'1211.7
2018-Aug-29 13:30N 51°18' W 128°26'612.7
2018-Aug-29 13:03N 51°23' W 128°30'112.6
2018-Aug-29 13:00N 51°24' W 128°30'612.7
2018-Aug-29 12:30N 51°30' W 128°29'613.1
2018-Aug-29 12:03N 51°36' W 128°31'113.3
2018-Aug-29 12:00N 51°37' W 128°32'713.3
2018-Aug-29 11:30N 51°43' W 128°34'612.8
2018-Aug-29 11:03N 51°48' W 128°37'112.6
2018-Aug-29 11:00N 51°49' W 128°37'612.7
2018-Aug-29 10:30N 51°55' W 128°39'612.4
2018-Aug-29 10:03N 52°01' W 128°41'112.1
2018-Aug-29 10:00N 52°01' W 128°41'612.2
2018-Aug-29 09:30N 52°07' W 128°44'512.1
2018-Aug-29 09:03N 52°12' W 128°47'112.0
2018-Aug-29 09:00N 52°13' W 128°47'612.0
2018-Aug-29 08:30N 52°19' W 128°50'512.1
2018-Aug-29 08:03N 52°24' W 128°51'111.8
2018-Aug-29 08:00N 52°25' W 128°51'  
Track history (hours):
 
Tides and Currents Weather Stations Pressure Air Temp Water Temp Dewpoint Dewpoint Depression Visibility Wind Speed Wind Dir Waves Ship Positions

Seabourn Legend

Operator: Cunard Seabourn

Last reported at 2018-Sep-08 07:35 UTC. Time now 2018-Sep-24 21:45 UTC.
Position N 58°10' W 136°54'.
Warning: this ship's position is 16 days out of date.

Length 135 m; draft 5.6 m.

Type: Passenger vessel. MMSI: 311085000.

Date/timePositionNaut miles runAvg speedWind from/ knotsBaromVisibWave heightAir tempDewpointWater temp
2018-Sep-08 07:35N 58°10' W 136°54'315.2
2018-Sep-08 07:22N 58°10' W 136°48'514.7
2018-Sep-08 07:02N 58°10' W 136°39'014.2
2018-Sep-08 07:01N 58°10' W 136°38'1013.1
2018-Sep-08 06:13N 58°17' W 136°24'313.5
2018-Sep-08 06:01N 58°18' W 136°19'015.7
2018-Sep-08 06:00N 58°18' W 136°19'714.5
2018-Sep-08 05:30N 58°20' W 136°05'612.3
2018-Sep-08 05:03N 58°19' W 135°55'113.5
2018-Sep-08 05:00N 58°19' W 135°53'714.3
2018-Sep-08 04:31N 58°17' W 135°40'715.4
2018-Sep-08 04:03N 58°15' W 135°28'115.5
2018-Sep-08 04:00N 58°15' W 135°27'  
2018-Sep-03 09:00N 55°30' W 132°12'54 1.4 330 / 21018.3 12.510.2
2018-Sep-01 17:10N 54°51' W 131°06'1114.8
2018-Sep-01 16:24N 54°41' W 131°14'514.9
2018-Sep-01 16:03N 54°36' W 131°18'114.4
2018-Sep-01 15:59N 54°35' W 131°19'714.8
2018-Sep-01 15:30N 54°29' W 131°14'714.9
2018-Sep-01 15:03N 54°23' W 131°09'115.3
2018-Sep-01 15:00N 54°22' W 131°08'714.9
2018-Sep-01 14:30N 54°16' W 131°02'714.0
2018-Sep-01 14:00N 54°09' W 131°02'714.2
2018-Sep-01 13:30N 54°02' W 131°02'714.5
2018-Sep-01 13:03N 53°55' W 131°02'114.1
2018-Sep-01 13:00N 53°54' W 131°02'714.4
2018-Sep-01 12:30N 53°47' W 131°01'714.8
2018-Sep-01 12:03N 53°41' W 131°00'115.0
2018-Sep-01 12:00N 53°40' W 131°00'815.0
2018-Sep-01 11:30N 53°32' W 130°60'1614.6
2018-Sep-01 10:24N 53°17' W 130°53'8214.8
2018-Sep-01 04:53N 52°07' W 129°42'513.8
2018-Sep-01 04:30N 52°03' W 129°37'613.3
2018-Sep-01 04:03N 51°58' W 129°32'113.1
2018-Sep-01 04:00N 51°57' W 129°31'713.7
2018-Sep-01 03:31N 51°51' W 129°25'614.3
2018-Sep-01 03:04N 51°46' W 129°20'113.6
2018-Sep-01 03:01N 51°45' W 129°19'713.0
2018-Sep-01 02:30N 51°40' W 129°14'613.1
2018-Sep-01 02:03N 51°35' W 129°09'112.9
2018-Sep-01 02:00N 51°34' W 129°08'613.0
2018-Sep-01 01:30N 51°29' W 129°02'512.1
2018-Sep-01 01:03N 51°24' W 128°57'113.6
2018-Sep-01 01:00N 51°24' W 128°56'713.6
2018-Sep-01 00:30N 51°21' W 128°47'512.1
2018-Sep-01 00:03N 51°18' W 128°39'0 9.6
2018-Sep-01 00:00N 51°18' W 128°38'611.8
2018-Aug-31 23:30N 51°15' W 128°30'613.6
2018-Aug-31 23:03N 51°12' W 128°22'113.8
2018-Aug-31 23:00N 51°12' W 128°21'713.9
2018-Aug-31 22:30N 51°08' W 128°11'714.0
2018-Aug-31 22:02N 51°05' W 128°02'114.4
2018-Aug-31 22:00N 51°05' W 128°01'713.7
2018-Aug-31 21:30N 51°01' W 127°52'512.0
2018-Aug-31 21:03N 50°58' W 127°45'1 8.9
2018-Aug-31 20:59N 50°58' W 127°44'4 8.9
2018-Aug-31 20:30N 50°55' W 127°39'4 9.2
2018-Aug-31 20:03N 50°52' W 127°34'0 8.5
2018-Aug-31 20:00N 50°52' W 127°34'4 8.7
2018-Aug-31 19:30N 50°50' W 127°27'4 9.0
2018-Aug-31 19:03N 50°48' W 127°21'0 8.7
2018-Aug-31 19:00N 50°48' W 127°21'4 8.8
2018-Aug-31 18:30N 50°46' W 127°15'7 8.8
2018-Aug-31 17:45N 50°44' W 127°05'3 8.9
2018-Aug-31 17:28N 50°43' W 127°01'4 8.6
2018-Aug-31 17:02N 50°42' W 126°56'0 7.4
2018-Aug-31 16:59N 50°42' W 126°55'5 8.3
2018-Aug-31 16:26N 50°39' W 126°49'4 8.7
2018-Aug-31 16:00N 50°37' W 126°45'1110.8
2018-Aug-31 15:00N 50°30' W 126°31'3911.3
2018-Aug-31 11:34N 50°21' W 125°32'311.8
2018-Aug-31 11:18N 50°20' W 125°27'210.0
2018-Aug-31 11:03N 50°18' W 125°25'1 9.1
2018-Aug-31 10:59N 50°18' W 125°25'511.4
2018-Aug-31 10:30N 50°13' W 125°22'511.0
2018-Aug-31 10:04N 50°08' W 125°21'111.1
2018-Aug-31 10:00N 50°07' W 125°20'510.4
2018-Aug-31 09:30N 50°03' W 125°15'510.6
2018-Aug-31 09:03N 49°59' W 125°12'110.6
2018-Aug-31 08:59N 49°59' W 125°11'511.2
2018-Aug-31 08:30N 49°55' W 125°05'512.3
2018-Aug-31 08:03N 49°51' W 124°59'0 8.8
2018-Aug-31 08:00N 49°51' W 124°58'5 9.2
2018-Aug-31 07:30N 49°48' W 124°53'4 9.5
2018-Aug-31 07:03N 49°45' W 124°48'111.9
2018-Aug-31 07:00N 49°44' W 124°48'612.1
2018-Aug-31 06:30N 49°40' W 124°41'512.1
2018-Aug-31 06:03N 49°36' W 124°36'112.1
2018-Aug-31 05:59N 49°35' W 124°35'612.1
2018-Aug-31 05:30N 49°30' W 124°29'611.8
2018-Aug-31 05:01N 49°27' W 124°23'015.0
2018-Aug-31 05:00N 49°26' W 124°23'711.9
2018-Aug-31 04:26N 49°24' W 124°13'613.5
2018-Aug-31 04:02N 49°23' W 124°05'113.6
2018-Aug-31 03:59N 49°23' W 124°04'713.8
2018-Aug-31 03:30N 49°21' W 123°54'613.5
2018-Aug-31 03:02N 49°19' W 123°45'013.2
2018-Aug-31 03:00N 49°19' W 123°44'714.2
2018-Aug-31 02:30N 49°19' W 123°33'614.2
2018-Aug-31 02:03N 49°19' W 123°23'112.7
2018-Aug-31 02:00N 49°19' W 123°22'2 4.7
2018-Aug-31 01:30N 49°18' W 123°19'1 1.6
2018-Aug-31 01:03N 49°19' W 123°18'0 4.5
2018-Aug-31 01:00N 49°19' W 123°18'511.0
2018-Aug-31 00:30N 49°19' W 123°09'3 5.8
2018-Aug-31 00:03N 49°17' W 123°06'0 2.6
2018-Aug-31 00:00N 49°17' W 123°06'0 0.1
2018-Aug-30 23:28N 49°17' W 123°07'0 0.0
2018-Aug-30 23:01N 49°17' W 123°07'0 0.0
2018-Aug-30 22:58N 49°17' W 123°07'0 0.0
2018-Aug-30 22:28N 49°17' W 123°07'0 0.0
2018-Aug-30 22:00N 49°17' W 123°07'0 0.0
2018-Aug-30 21:28N 49°17' W 123°07'0 0.0
2018-Aug-30 21:04N 49°17' W 123°07'0 0.0
2018-Aug-30 20:58N 49°17' W 123°07'0 0.0
2018-Aug-30 20:30N 49°17' W 123°07'0 0.0
2018-Aug-30 19:31N 49°17' W 123°07'0 0.0
2018-Aug-30 19:01N 49°17' W 123°07'0 0.0
2018-Aug-30 18:58N 49°17' W 123°07'0 0.0
2018-Aug-30 18:31N 49°17' W 123°07'0 0.0
2018-Aug-30 18:04N 49°17' W 123°07'0 0.0
2018-Aug-30 17:57N 49°17' W 123°07'0 0.0
2018-Aug-30 17:28N 49°17' W 123°07'0 0.0
2018-Aug-30 17:01N 49°17' W 123°07'0 0.0
2018-Aug-30 16:31N 49°17' W 123°07'0 0.0
2018-Aug-30 16:03N 49°17' W 123°07'0 0.0
2018-Aug-30 16:01N 49°17' W 123°07'0 0.0
2018-Aug-30 15:31N 49°17' W 123°07'0 0.0
2018-Aug-30 15:03N 49°17' W 123°07'0 0.0
2018-Aug-30 15:01N 49°17' W 123°07'3 2.8
2018-Aug-30 14:03N 49°19' W 123°10'010.9
2018-Aug-30 14:01N 49°19' W 123°10'712.0
2018-Aug-30 13:28N 49°18' W 123°20'511.6
2018-Aug-30 13:04N 49°19' W 123°27'111.8
2018-Aug-30 12:59N 49°19' W 123°29'511.1
2018-Aug-30 12:31N 49°20' W 123°37'511.1
2018-Aug-30 12:03N 49°21' W 123°44'010.1
2018-Aug-30 12:00N 49°21' W 123°45'4 7.6
2018-Aug-30 11:30N 49°22' W 123°51'4 8.2
2018-Aug-30 11:03N 49°23' W 123°57'0 8.1
2018-Aug-30 11:00N 49°23' W 123°57'4 8.3
2018-Aug-30 10:30N 49°23' W 124°03'4 8.8
2018-Aug-30 10:04N 49°24' W 124°09'0 8.6
2018-Aug-30 10:00N 49°24' W 124°10'5 8.8
2018-Aug-30 09:29N 49°25' W 124°17'4 9.3
2018-Aug-30 09:03N 49°27' W 124°23'0 9.2
2018-Aug-30 09:00N 49°27' W 124°23'5 9.3
2018-Aug-30 08:30N 49°30' W 124°29'4 9.1
2018-Aug-30 08:03N 49°33' W 124°33'1 9.1
2018-Aug-30 08:00N 49°33' W 124°34'4 9.0
2018-Aug-30 07:30N 49°37' W 124°38'4 8.8
2018-Aug-30 07:03N 49°39' W 124°42'0 9.1
2018-Aug-30 07:00N 49°40' W 124°43'4 8.8
2018-Aug-30 06:30N 49°43' W 124°48'4 8.6
2018-Aug-30 06:03N 49°46' W 124°52'0 8.1
2018-Aug-30 06:01N 49°46' W 124°52'4 8.8
2018-Aug-30 05:31N 49°49' W 124°57'4 8.9
2018-Aug-30 05:03N 49°52' W 125°01'0 9.0
2018-Aug-30 05:00N 49°52' W 125°02'4 8.5
2018-Aug-30 04:30N 49°55' W 125°06'4 8.8
2018-Aug-30 04:03N 49°58' W 125°11'011.4
2018-Aug-30 04:01N 49°59' W 125°11'510.3
2018-Aug-30 03:30N 50°03' W 125°15'511.9
2018-Aug-30 03:03N 50°07' W 125°20'111.6
2018-Aug-30 03:00N 50°07' W 125°21'712.4
2018-Aug-30 02:29N 50°14' W 125°23'512.1
2018-Aug-30 02:03N 50°19' W 125°25'111.5
2018-Aug-30 02:00N 50°19' W 125°25'4110.0
2018-Aug-29 21:52N 50°30' W 126°28'3 8.7
2018-Aug-29 21:30N 50°30' W 126°33'5 9.0
2018-Aug-29 20:57N 50°31' W 126°41'711.5
2018-Aug-29 20:20N 50°34' W 126°51'4 9.5
2018-Aug-29 19:58N 50°35' W 126°56'5 9.0
2018-Aug-29 19:28N 50°37' W 127°03'511.7
2018-Aug-29 19:01N 50°38' W 127°11'010.6
2018-Aug-29 19:00N 50°38' W 127°11'611.9
2018-Aug-29 18:30N 50°42' W 127°17'511.8
2018-Aug-29 18:03N 50°46' W 127°23'111.6
2018-Aug-29 18:00N 50°47' W 127°23'1710.9
2018-Aug-29 16:28N 50°57' W 127°44'1111.2
2018-Aug-29 15:27N 51°04' W 127°59'411.1
2018-Aug-29 15:03N 51°06' W 128°05'111.0
2018-Aug-29 14:59N 51°06' W 128°06'511.1
2018-Aug-29 14:30N 51°10' W 128°13'1211.7
2018-Aug-29 13:30N 51°18' W 128°26'612.7
2018-Aug-29 13:03N 51°23' W 128°30'112.6
2018-Aug-29 13:00N 51°24' W 128°30'612.7
2018-Aug-29 12:30N 51°30' W 128°29'613.1
2018-Aug-29 12:03N 51°36' W 128°31'113.3
2018-Aug-29 12:00N 51°37' W 128°32'713.3
2018-Aug-29 11:30N 51°43' W 128°34'612.8
2018-Aug-29 11:03N 51°48' W 128°37'112.6
2018-Aug-29 11:00N 51°49' W 128°37'612.7
2018-Aug-29 10:30N 51°55' W 128°39'612.4
2018-Aug-29 10:03N 52°01' W 128°41'112.1
2018-Aug-29 10:00N 52°01' W 128°41'612.2
2018-Aug-29 09:30N 52°07' W 128°44'512.1
2018-Aug-29 09:03N 52°12' W 128°47'112.0
2018-Aug-29 09:00N 52°13' W 128°47'612.0
2018-Aug-29 08:30N 52°19' W 128°50'512.1
2018-Aug-29 08:03N 52°24' W 128°51'111.8
2018-Aug-29 08:00N 52°25' W 128°51'  

Dump ship's entire track history